sensor_id;sensor_type;location;lat;lon;timestamp;pressure;altitude;pressure_sealevel;temperature;humidity
44131;BME280;29792;48.726;9.248;2022-09-09T00:00:40;96606.47;;;15.65;80.63
44131;BME280;29792;48.726;9.248;2022-09-09T00:03:16;96598.09;;;15.63;80.55
44131;BME280;29792;48.726;9.248;2022-09-09T00:08:37;96596.63;;;15.60;80.28
44131;BME280;29792;48.726;9.248;2022-09-09T00:11:12;96595.84;;;15.60;80.69
44131;BME280;29792;48.726;9.248;2022-09-09T00:13:46;96589.06;;;15.59;80.73
44131;BME280;29792;48.726;9.248;2022-09-09T00:16:22;96590.81;;;15.58;81.25
44131;BME280;29792;48.726;9.248;2022-09-09T00:19:26;96590.22;;;15.56;80.96
44131;BME280;29792;48.726;9.248;2022-09-09T00:24:43;96587.63;;;15.56;80.56
44131;BME280;29792;48.726;9.248;2022-09-09T00:29:53;96582.78;;;15.53;80.94
44131;BME280;29792;48.726;9.248;2022-09-09T00:32:21;96585.50;;;15.52;81.46
44131;BME280;29792;48.726;9.248;2022-09-09T00:34:52;96588.22;;;15.50;81.51
44131;BME280;29792;48.726;9.248;2022-09-09T00:37:20;96576.13;;;15.51;81.88
44131;BME280;29792;48.726;9.248;2022-09-09T00:39:48;96581.13;;;15.52;82.41
44131;BME280;29792;48.726;9.248;2022-09-09T00:49:52;96578.06;;;15.57;81.89
44131;BME280;29792;48.726;9.248;2022-09-09T00:57:35;96586.97;;;15.62;82.04
44131;BME280;29792;48.726;9.248;2022-09-09T01:05:45;96591.63;;;15.67;82.32
44131;BME280;29792;48.726;9.248;2022-09-09T01:11:10;96584.84;;;15.66;81.71
44131;BME280;29792;48.726;9.248;2022-09-09T01:13:41;96586.47;;;15.67;81.78
44131;BME280;29792;48.726;9.248;2022-09-09T01:16:09;96587.25;;;15.68;81.83
44131;BME280;29792;48.726;9.248;2022-09-09T01:18:40;96581.28;;;15.67;81.61
44131;BME280;29792;48.726;9.248;2022-09-09T01:21:22;96574.34;;;15.68;81.38
44131;BME280;29792;48.726;9.248;2022-09-09T01:24:08;96579.50;;;15.68;81.38
44131;BME280;29792;48.726;9.248;2022-09-09T01:26:43;96591.47;;;15.69;80.88
44131;BME280;29792;48.726;9.248;2022-09-09T01:29:15;96599.06;;;15.70;81.18
44131;BME280;29792;48.726;9.248;2022-09-09T01:31:53;96602.59;;;15.69;81.00
44131;BME280;29792;48.726;9.248;2022-09-09T01:34:20;96601.78;;;15.69;81.11
44131;BME280;29792;48.726;9.248;2022-09-09T01:37:07;96606.16;;;15.68;80.95
44131;BME280;29792;48.726;9.248;2022-09-09T01:39:34;96601.94;;;15.67;80.88
44131;BME280;29792;48.726;9.248;2022-09-09T01:42:01;96601.31;;;15.65;80.78
44131;BME280;29792;48.726;9.248;2022-09-09T01:44:28;96592.94;;;15.63;80.88
44131;BME280;29792;48.726;9.248;2022-09-09T01:46:54;96588.91;;;15.60;81.39
44131;BME280;29792;48.726;9.248;2022-09-09T01:49:20;96580.19;;;15.61;81.37
44131;BME280;29792;48.726;9.248;2022-09-09T01:51:49;96580.34;;;15.60;81.48
44131;BME280;29792;48.726;9.248;2022-09-09T01:54:15;96584.69;;;15.59;81.03
44131;BME280;29792;48.726;9.248;2022-09-09T01:59:21;96585.19;;;15.55;81.01
44131;BME280;29792;48.726;9.248;2022-09-09T02:02:03;96591.78;;;15.49;81.12
44131;BME280;29792;48.726;9.248;2022-09-09T02:04:49;96601.00;;;15.44;81.13
44131;BME280;29792;48.726;9.248;2022-09-09T02:07:35;96596.78;;;15.43;81.39
44131;BME280;29792;48.726;9.248;2022-09-09T02:12:47;96601.66;;;15.38;81.45
44131;BME280;29792;48.726;9.248;2022-09-09T02:15:35;96590.66;;;15.36;81.24
44131;BME280;29792;48.726;9.248;2022-09-09T02:18:07;96583.44;;;15.31;81.46
44131;BME280;29792;48.726;9.248;2022-09-09T02:20:35;96602.47;;;15.30;81.82
44131;BME280;29792;48.726;9.248;2022-09-09T02:23:02;96593.09;;;15.29;81.91
44131;BME280;29792;48.726;9.248;2022-09-09T02:25:29;96591.47;;;15.28;81.55
44131;BME280;29792;48.726;9.248;2022-09-09T02:27:55;96590.22;;;15.24;81.60
44131;BME280;29792;48.726;9.248;2022-09-09T02:30:23;96584.41;;;15.22;81.64
44131;BME280;29792;48.726;9.248;2022-09-09T02:32:50;96594.88;;;15.20;81.78
44131;BME280;29792;48.726;9.248;2022-09-09T02:35:20;96584.06;;;15.17;81.70
44131;BME280;29792;48.726;9.248;2022-09-09T02:37:50;96590.22;;;15.16;81.87
44131;BME280;29792;48.726;9.248;2022-09-09T02:40:17;96591.34;;;15.13;81.62
44131;BME280;29792;48.726;9.248;2022-09-09T02:42:45;96591.63;;;15.10;81.02
44131;BME280;29792;48.726;9.248;2022-09-09T02:45:15;96591.00;;;15.08;81.35
44131;BME280;29792;48.726;9.248;2022-09-09T02:47:50;96583.59;;;15.05;81.44
44131;BME280;29792;48.726;9.248;2022-09-09T02:50:25;96579.72;;;15.01;81.54
44131;BME280;29792;48.726;9.248;2022-09-09T02:53:16;96583.44;;;14.99;81.56
44131;BME280;29792;48.726;9.248;2022-09-09T02:55:48;96588.91;;;14.96;81.71
44131;BME280;29792;48.726;9.248;2022-09-09T02:58:17;96586.47;;;14.94;82.20
44131;BME280;29792;48.726;9.248;2022-09-09T03:00:46;96583.25;;;14.92;81.83
44131;BME280;29792;48.726;9.248;2022-09-09T03:03:12;96586.63;;;14.93;81.95
44131;BME280;29792;48.726;9.248;2022-09-09T03:05:38;96586.81;;;14.91;82.19
44131;BME280;29792;48.726;9.248;2022-09-09T03:08:04;96587.63;;;14.92;82.05
44131;BME280;29792;48.726;9.248;2022-09-09T03:10:31;96577.13;;;14.93;82.02
44131;BME280;29792;48.726;9.248;2022-09-09T03:12:56;96594.22;;;14.94;82.24
44131;BME280;29792;48.726;9.248;2022-09-09T03:15:22;96591.63;;;14.94;81.88
44131;BME280;29792;48.726;9.248;2022-09-09T03:17:47;96585.50;;;14.87;81.76
44131;BME280;29792;48.726;9.248;2022-09-09T03:20:12;96585.19;;;14.82;82.15
44131;BME280;29792;48.726;9.248;2022-09-09T03:22:38;96595.00;;;14.78;82.88
44131;BME280;29792;48.726;9.248;2022-09-09T03:25:03;96591.78;;;14.76;82.94
44131;BME280;29792;48.726;9.248;2022-09-09T03:27:29;96600.50;;;14.75;83.23
44131;BME280;29792;48.726;9.248;2022-09-09T03:29:54;96596.47;;;14.73;83.36
44131;BME280;29792;48.726;9.248;2022-09-09T03:32:21;96591.44;;;14.71;83.49
44131;BME280;29792;48.726;9.248;2022-09-09T03:34:48;96589.50;;;14.65;83.96
44131;BME280;29792;48.726;9.248;2022-09-09T03:37:15;96595.78;;;14.63;83.96
44131;BME280;29792;48.726;9.248;2022-09-09T03:39:40;96595.31;;;14.59;84.13
44131;BME280;29792;48.726;9.248;2022-09-09T03:42:06;96599.16;;;14.55;84.37
44131;BME280;29792;48.726;9.248;2022-09-09T03:44:31;96594.78;;;14.47;84.69
44131;BME280;29792;48.726;9.248;2022-09-09T03:46:57;96594.88;;;14.38;85.03
44131;BME280;29792;48.726;9.248;2022-09-09T03:49:25;96596.63;;;14.29;85.26
44131;BME280;29792;48.726;9.248;2022-09-09T03:51:52;96591.81;;;14.26;85.48
44131;BME280;29792;48.726;9.248;2022-09-09T03:54:17;96586.00;;;14.24;85.90
44131;BME280;29792;48.726;9.248;2022-09-09T03:56:42;96584.38;;;14.23;86.31
44131;BME280;29792;48.726;9.248;2022-09-09T03:59:08;96592.41;;;14.20;86.36
44131;BME280;29792;48.726;9.248;2022-09-09T04:01:33;96588.53;;;14.16;86.25
44131;BME280;29792;48.726;9.248;2022-09-09T04:03:59;96593.03;;;14.14;87.28
44131;BME280;29792;48.726;9.248;2022-09-09T04:06:24;96594.13;;;14.11;87.36
44131;BME280;29792;48.726;9.248;2022-09-09T04:08:51;96598.66;;;14.09;87.75
44131;BME280;29792;48.726;9.248;2022-09-09T04:11:17;96599.47;;;14.10;87.92
44131;BME280;29792;48.726;9.248;2022-09-09T04:13:42;96606.38;;;14.09;88.22
44131;BME280;29792;48.726;9.248;2022-09-09T04:16:10;96601.22;;;14.09;88.52
44131;BME280;29792;48.726;9.248;2022-09-09T04:18:36;96608.16;;;14.09;88.24
44131;BME280;29792;48.726;9.248;2022-09-09T04:21:01;96598.47;;;14.11;88.12
44131;BME280;29792;48.726;9.248;2022-09-09T04:23:28;96602.19;;;14.08;88.41
44131;BME280;29792;48.726;9.248;2022-09-09T04:25:58;96601.22;;;14.09;88.47
44131;BME280;29792;48.726;9.248;2022-09-09T04:28:25;96602.34;;;14.07;88.07
44131;BME280;29792;48.726;9.248;2022-09-09T04:30:51;96604.91;;;14.07;88.79
44131;BME280;29792;48.726;9.248;2022-09-09T04:33:18;96593.66;;;14.08;88.82
44131;BME280;29792;48.726;9.248;2022-09-09T04:35:45;96602.84;;;14.10;89.21
44131;BME280;29792;48.726;9.248;2022-09-09T04:38:11;96605.91;;;14.14;89.38
44131;BME280;29792;48.726;9.248;2022-09-09T04:40:36;96603.03;;;14.17;88.81
44131;BME280;29792;48.726;9.248;2022-09-09T04:43:02;96592.41;;;14.20;89.45
44131;BME280;29792;48.726;9.248;2022-09-09T04:45:31;96594.38;;;14.26;88.77
44131;BME280;29792;48.726;9.248;2022-09-09T04:47:57;96593.75;;;14.32;88.88
44131;BME280;29792;48.726;9.248;2022-09-09T04:50:22;96599.22;;;14.37;88.88
44131;BME280;29792;48.726;9.248;2022-09-09T04:52:47;96599.44;;;14.44;89.11
44131;BME280;29792;48.726;9.248;2022-09-09T04:55:13;96595.59;;;14.48;88.68
44131;BME280;29792;48.726;9.248;2022-09-09T04:57:39;96595.09;;;14.52;88.80
44131;BME280;29792;48.726;9.248;2022-09-09T05:00:05;96599.97;;;14.56;88.29
44131;BME280;29792;48.726;9.248;2022-09-09T05:02:30;96594.50;;;14.59;88.20
44131;BME280;29792;48.726;9.248;2022-09-09T05:04:56;96595.13;;;14.61;87.71
44131;BME280;29792;48.726;9.248;2022-09-09T05:07:22;96598.50;;;14.61;87.34
44131;BME280;29792;48.726;9.248;2022-09-09T05:09:47;96603.53;;;14.63;87.54
44131;BME280;29792;48.726;9.248;2022-09-09T05:12:14;96607.56;;;14.65;87.87
44131;BME280;29792;48.726;9.248;2022-09-09T05:14:41;96617.72;;;14.67;86.89
44131;BME280;29792;48.726;9.248;2022-09-09T05:17:07;96615.16;;;14.67;86.94
44131;BME280;29792;48.726;9.248;2022-09-09T05:19:32;96604.84;;;14.67;87.08
44131;BME280;29792;48.726;9.248;2022-09-09T05:21:57;96610.00;;;14.67;86.73
44131;BME280;29792;48.726;9.248;2022-09-09T05:24:22;96610.78;;;14.67;86.54
44131;BME280;29792;48.726;9.248;2022-09-09T05:26:50;96609.66;;;14.70;86.66
44131;BME280;29792;48.726;9.248;2022-09-09T05:29:15;96616.13;;;14.74;87.00
44131;BME280;29792;48.726;9.248;2022-09-09T05:31:44;96612.91;;;14.80;87.09
44131;BME280;29792;48.726;9.248;2022-09-09T05:34:09;96617.56;;;14.84;87.13
44131;BME280;29792;48.726;9.248;2022-09-09T05:36:34;96611.16;;;14.88;87.03
44131;BME280;29792;48.726;9.248;2022-09-09T05:39:00;96601.94;;;14.94;87.39
44131;BME280;29792;48.726;9.248;2022-09-09T05:41:26;96621.94;;;15.00;87.53
44131;BME280;29792;48.726;9.248;2022-09-09T05:43:52;96626.47;;;15.06;87.58
44131;BME280;29792;48.726;9.248;2022-09-09T05:46:19;96630.34;;;15.10;87.11
44131;BME280;29792;48.726;9.248;2022-09-09T05:48:46;96622.28;;;15.13;86.63
44131;BME280;29792;48.726;9.248;2022-09-09T05:51:14;96625.34;;;15.17;86.88
44131;BME280;29792;48.726;9.248;2022-09-09T05:53:41;96624.22;;;15.19;86.69
44131;BME280;29792;48.726;9.248;2022-09-09T05:56:08;96635.03;;;15.23;86.68
44131;BME280;29792;48.726;9.248;2022-09-09T05:58:38;96638.09;;;15.26;86.37
44131;BME280;29792;48.726;9.248;2022-09-09T06:01:18;96636.16;;;15.28;86.28
44131;BME280;29792;48.726;9.248;2022-09-09T06:03:44;96639.41;;;15.31;85.70
44131;BME280;29792;48.726;9.248;2022-09-09T06:06:16;96642.59;;;15.33;85.83
44131;BME280;29792;48.726;9.248;2022-09-09T06:08:43;96637.13;;;15.36;85.70
44131;BME280;29792;48.726;9.248;2022-09-09T06:11:10;96636.00;;;15.38;85.40
44131;BME280;29792;48.726;9.248;2022-09-09T06:13:37;96629.69;;;15.41;85.72
44131;BME280;29792;48.726;9.248;2022-09-09T06:16:04;96636.31;;;15.43;86.01
44131;BME280;29792;48.726;9.248;2022-09-09T06:18:30;96633.44;;;15.46;85.90
44131;BME280;29792;48.726;9.248;2022-09-09T06:21:00;96623.75;;;15.48;86.03
44131;BME280;29792;48.726;9.248;2022-09-09T06:23:26;96631.00;;;15.53;86.35
44131;BME280;29792;48.726;9.248;2022-09-09T06:26:03;96629.72;;;15.57;86.26
44131;BME280;29792;48.726;9.248;2022-09-09T06:28:30;96635.06;;;15.63;86.42
44131;BME280;29792;48.726;9.248;2022-09-09T06:31:00;96624.38;;;15.67;86.05
44131;BME280;29792;48.726;9.248;2022-09-09T06:33:26;96621.31;;;15.71;85.81
44131;BME280;29792;48.726;9.248;2022-09-09T06:35:55;96626.16;;;15.74;84.91
44131;BME280;29792;48.726;9.248;2022-09-09T06:38:22;96632.59;;;15.78;85.48
44131;BME280;29792;48.726;9.248;2022-09-09T06:40:54;96633.88;;;15.82;85.32
44131;BME280;29792;48.726;9.248;2022-09-09T06:43:21;96632.44;;;15.88;85.50
44131;BME280;29792;48.726;9.248;2022-09-09T06:46:01;96633.53;;;15.93;85.69
44131;BME280;29792;48.726;9.248;2022-09-09T06:48:27;96634.81;;;15.97;85.80
44131;BME280;29792;48.726;9.248;2022-09-09T06:51:04;96642.72;;;16.04;85.44
44131;BME280;29792;48.726;9.248;2022-09-09T06:53:31;96645.44;;;16.11;85.51
44131;BME280;29792;48.726;9.248;2022-09-09T06:56:02;96641.22;;;16.18;85.88
44131;BME280;29792;48.726;9.248;2022-09-09T06:58:28;96637.81;;;16.25;85.88
44131;BME280;29792;48.726;9.248;2022-09-09T07:01:04;96645.38;;;16.35;86.13
44131;BME280;29792;48.726;9.248;2022-09-09T07:03:29;96642.41;;;16.46;86.03
44131;BME280;29792;48.726;9.248;2022-09-09T07:05:55;96639.97;;;16.53;85.39
44131;BME280;29792;48.726;9.248;2022-09-09T07:08:21;96638.47;;;16.58;85.27
44131;BME280;29792;48.726;9.248;2022-09-09T07:10:46;96640.25;;;16.66;84.80
44131;BME280;29792;48.726;9.248;2022-09-09T07:13:12;96645.53;;;16.72;84.59
44131;BME280;29792;48.726;9.248;2022-09-09T07:15:41;96650.81;;;16.79;85.19
44131;BME280;29792;48.726;9.248;2022-09-09T07:18:06;96638.84;;;16.86;84.88
44131;BME280;29792;48.726;9.248;2022-09-09T07:20:31;96645.75;;;16.94;85.13
44131;BME280;29792;48.726;9.248;2022-09-09T07:22:57;96651.69;;;17.02;85.24
44131;BME280;29792;48.726;9.248;2022-09-09T07:25:24;96650.63;;;17.11;84.95
44131;BME280;29792;48.726;9.248;2022-09-09T07:27:51;96647.81;;;17.21;84.57
44131;BME280;29792;48.726;9.248;2022-09-09T07:30:16;96640.34;;;17.26;84.87
44131;BME280;29792;48.726;9.248;2022-09-09T07:32:43;96643.22;;;17.31;83.58
44131;BME280;29792;48.726;9.248;2022-09-09T07:35:08;96637.50;;;17.36;83.51
44131;BME280;29792;48.726;9.248;2022-09-09T07:37:36;96639.06;;;17.45;84.28
44131;BME280;29792;48.726;9.248;2022-09-09T07:40:02;96646.59;;;17.54;83.29
44131;BME280;29792;48.726;9.248;2022-09-09T07:42:30;96647.53;;;17.62;83.43
44131;BME280;29792;48.726;9.248;2022-09-09T07:44:55;96643.88;;;17.71;82.50
44131;BME280;29792;48.726;9.248;2022-09-09T07:47:20;96644.69;;;17.86;82.76
44131;BME280;29792;48.726;9.248;2022-09-09T07:49:46;96645.16;;;18.04;82.57
44131;BME280;29792;48.726;9.248;2022-09-09T07:52:12;96647.94;;;18.17;81.68
44131;BME280;29792;48.726;9.248;2022-09-09T07:54:37;96651.88;;;18.28;81.41
44131;BME280;29792;48.726;9.248;2022-09-09T07:57:03;96665.47;;;18.45;81.62
44131;BME280;29792;48.726;9.248;2022-09-09T07:59:29;96665.94;;;18.63;81.85
44131;BME280;29792;48.726;9.248;2022-09-09T08:01:55;96669.94;;;18.80;81.30
44131;BME280;29792;48.726;9.248;2022-09-09T08:04:22;96666.47;;;18.94;79.78
44131;BME280;29792;48.726;9.248;2022-09-09T08:06:52;96662.41;;;19.06;78.97
44131;BME280;29792;48.726;9.248;2022-09-09T08:09:18;96668.91;;;19.17;78.49
44131;BME280;29792;48.726;9.248;2022-09-09T08:11:44;96671.44;;;19.32;78.28
44131;BME280;29792;48.726;9.248;2022-09-09T08:14:10;96675.09;;;19.37;77.38
44131;BME280;29792;48.726;9.248;2022-09-09T08:16:39;96673.91;;;19.40;76.37
44131;BME280;29792;48.726;9.248;2022-09-09T08:19:05;96680.38;;;19.44;75.71
44131;BME280;29792;48.726;9.248;2022-09-09T08:21:33;96664.28;;;19.55;76.02
44131;BME280;29792;48.726;9.248;2022-09-09T08:24:00;96662.22;;;19.72;76.23
44131;BME280;29792;48.726;9.248;2022-09-09T08:26:31;96673.13;;;19.89;74.78
44131;BME280;29792;48.726;9.248;2022-09-09T08:28:58;96680.84;;;20.03;74.79
44131;BME280;29792;48.726;9.248;2022-09-09T08:31:26;96672.97;;;20.18;75.12
44131;BME280;29792;48.726;9.248;2022-09-09T08:33:53;96675.69;;;20.38;74.44
44131;BME280;29792;48.726;9.248;2022-09-09T08:36:21;96671.56;;;20.56;73.19
44131;BME280;29792;48.726;9.248;2022-09-09T08:38:51;96677.88;;;20.75;72.49
44131;BME280;29792;48.726;9.248;2022-09-09T08:47:06;96681.88;;;21.32;68.62
44131;BME280;29792;48.726;9.248;2022-09-09T08:50:06;96670.84;;;21.37;68.66
44131;BME280;29792;48.726;9.248;2022-09-09T08:52:51;96678.66;;;21.50;68.56
44131;BME280;29792;48.726;9.248;2022-09-09T08:58:11;96682.69;;;21.59;66.41
44131;BME280;29792;48.726;9.248;2022-09-09T09:03:52;96678.66;;;21.50;64.83
44131;BME280;29792;48.726;9.248;2022-09-09T09:09:08;96673.47;;;21.63;65.59
44131;BME280;29792;48.726;9.248;2022-09-09T09:11:39;96677.09;;;21.88;67.06
44131;BME280;29792;48.726;9.248;2022-09-09T09:14:14;96679.09;;;22.13;64.85
44131;BME280;29792;48.726;9.248;2022-09-09T09:16:54;96669.41;;;22.33;63.38
44131;BME280;29792;48.726;9.248;2022-09-09T09:19:21;96680.63;;;22.40;62.96
44131;BME280;29792;48.726;9.248;2022-09-09T09:21:54;96675.41;;;22.40;62.72
44131;BME280;29792;48.726;9.248;2022-09-09T09:24:29;96681.84;;;22.37;61.20
44131;BME280;29792;48.726;9.248;2022-09-09T09:26:57;96676.63;;;22.37;62.68
44131;BME280;29792;48.726;9.248;2022-09-09T09:29:26;96681.03;;;22.37;61.56
44131;BME280;29792;48.726;9.248;2022-09-09T09:31:54;96699.94;;;22.26;62.40
44131;BME280;29792;48.726;9.248;2022-09-09T09:34:21;96737.03;;;21.75;61.43
44131;BME280;29792;48.726;9.248;2022-09-09T09:37:01;96708.72;;;20.85;62.92
44131;BME280;29792;48.726;9.248;2022-09-09T09:39:31;96699.22;;;20.30;66.26
44131;BME280;29792;48.726;9.248;2022-09-09T09:42:14;96682.75;;;19.88;69.22
44131;BME280;29792;48.726;9.248;2022-09-09T09:44:41;96680.03;;;19.75;70.91
44131;BME280;29792;48.726;9.248;2022-09-09T09:47:18;96677.22;;;19.70;72.25
44131;BME280;29792;48.726;9.248;2022-09-09T09:49:58;96673.19;;;19.67;73.67
44131;BME280;29792;48.726;9.248;2022-09-09T09:52:27;96667.00;;;19.68;74.79
44131;BME280;29792;48.726;9.248;2022-09-09T09:54:54;96658.63;;;19.73;77.93
44131;BME280;29792;48.726;9.248;2022-09-09T09:57:24;96654.91;;;19.82;78.95
44131;BME280;29792;48.726;9.248;2022-09-09T10:00:19;96648.94;;;19.88;77.95
44131;BME280;29792;48.726;9.248;2022-09-09T10:02:46;96647.56;;;19.92;77.00
44131;BME280;29792;48.726;9.248;2022-09-09T10:07:45;96650.56;;;20.24;83.11
44131;BME280;29792;48.726;9.248;2022-09-09T10:10:15;96649.09;;;20.42;84.61
44131;BME280;29792;48.726;9.248;2022-09-09T10:12:58;96647.16;;;20.58;81.22
44131;BME280;29792;48.726;9.248;2022-09-09T10:18:32;96637.63;;;20.84;81.50
44131;BME280;29792;48.726;9.248;2022-09-09T10:21:20;96642.44;;;20.81;76.03
44131;BME280;29792;48.726;9.248;2022-09-09T10:24:31;96642.97;;;20.63;75.91
44131;BME280;29792;48.726;9.248;2022-09-09T10:27:14;96638.72;;;20.49;76.57
44131;BME280;29792;48.726;9.248;2022-09-09T10:30:00;96638.06;;;20.40;75.33
44131;BME280;29792;48.726;9.248;2022-09-09T10:32:33;96636.59;;;20.31;73.52
44131;BME280;29792;48.726;9.248;2022-09-09T10:38:33;96633.31;;;20.16;74.85
44131;BME280;29792;48.726;9.248;2022-09-09T10:44:06;96623.69;;;20.10;75.09
44131;BME280;29792;48.726;9.248;2022-09-09T10:46:51;96630.47;;;20.11;75.78
44131;BME280;29792;48.726;9.248;2022-09-09T10:52:24;96625.88;;;20.13;77.02
44131;BME280;29792;48.726;9.248;2022-09-09T10:57:33;96623.16;;;20.28;77.17
44131;BME280;29792;48.726;9.248;2022-09-09T11:00:05;96615.91;;;20.51;79.39
44131;BME280;29792;48.726;9.248;2022-09-09T11:02:32;96608.97;;;20.78;78.57
44131;BME280;29792;48.726;9.248;2022-09-09T11:05:05;96609.59;;;20.93;73.31
44131;BME280;29792;48.726;9.248;2022-09-09T11:07:39;96606.00;;;21.01;74.82
44131;BME280;29792;48.726;9.248;2022-09-09T11:10:17;96610.81;;;21.04;74.78
44131;BME280;29792;48.726;9.248;2022-09-09T11:12:45;96611.44;;;21.06;75.42
44131;BME280;29792;48.726;9.248;2022-09-09T11:15:31;96608.84;;;21.06;75.40
44131;BME280;29792;48.726;9.248;2022-09-09T11:18:03;96617.22;;;21.01;73.40
44131;BME280;29792;48.726;9.248;2022-09-09T11:20:32;96619.22;;;20.92;72.83
44131;BME280;29792;48.726;9.248;2022-09-09T11:23:25;96615.59;;;20.80;71.89
44131;BME280;29792;48.726;9.248;2022-09-09T11:25:55;96621.34;;;20.69;72.79
44131;BME280;29792;48.726;9.248;2022-09-09T11:28:34;96625.94;;;20.61;72.41
44131;BME280;29792;48.726;9.248;2022-09-09T11:36:25;96660.47;;;20.07;70.80
44131;BME280;29792;48.726;9.248;2022-09-09T11:41:48;96665.66;;;19.51;74.45
44131;BME280;29792;48.726;9.248;2022-09-09T11:44:19;96663.03;;;19.30;75.42
44131;BME280;29792;48.726;9.248;2022-09-09T11:46:49;96649.50;;;19.13;76.49
44131;BME280;29792;48.726;9.248;2022-09-09T11:49:30;96655.59;;;19.05;77.26
44131;BME280;29792;48.726;9.248;2022-09-09T11:52:35;96646.91;;;19.13;79.87
44131;BME280;29792;48.726;9.248;2022-09-09T11:55:08;96652.69;;;19.15;79.17
44131;BME280;29792;48.726;9.248;2022-09-09T11:57:36;96641.72;;;19.13;77.35
44131;BME280;29792;48.726;9.248;2022-09-09T12:00:03;96647.44;;;19.09;76.59
44131;BME280;29792;48.726;9.248;2022-09-09T12:02:29;96652.63;;;19.09;76.13
44131;BME280;29792;48.726;9.248;2022-09-09T12:05:02;96656.72;;;19.18;77.34
44131;BME280;29792;48.726;9.248;2022-09-09T12:07:49;96655.72;;;19.40;77.91
44131;BME280;29792;48.726;9.248;2022-09-09T12:10:28;96647.97;;;19.47;73.16
44131;BME280;29792;48.726;9.248;2022-09-09T12:12:54;96649.19;;;19.44;71.68
44131;BME280;29792;48.726;9.248;2022-09-09T12:15:28;96656.53;;;19.40;71.17
44131;BME280;29792;48.726;9.248;2022-09-09T12:17:58;96647.31;;;19.38;70.30
44131;BME280;29792;48.726;9.248;2022-09-09T12:29:02;96637.97;;;19.93;72.07
44131;BME280;29792;48.726;9.248;2022-09-09T12:31:42;96635.31;;;20.14;72.77
44131;BME280;29792;48.726;9.248;2022-09-09T12:36:36;96633.50;;;20.49;69.60
44131;BME280;29792;48.726;9.248;2022-09-09T12:39:34;96625.94;;;20.61;66.59
44131;BME280;29792;48.726;9.248;2022-09-09T12:42:02;96623.19;;;20.75;68.07
44131;BME280;29792;48.726;9.248;2022-09-09T12:44:29;96626.22;;;20.92;67.28
44131;BME280;29792;48.726;9.248;2022-09-09T12:46:57;96623.84;;;21.10;65.70
44131;BME280;29792;48.726;9.248;2022-09-09T12:49:28;96614.69;;;21.21;64.21
44131;BME280;29792;48.726;9.248;2022-09-09T12:51:56;96622.50;;;21.27;63.10
44131;BME280;29792;48.726;9.248;2022-09-09T12:54:22;96612.47;;;21.18;61.08
44131;BME280;29792;48.726;9.248;2022-09-09T12:56:48;96618.25;;;21.13;62.40
44131;BME280;29792;48.726;9.248;2022-09-09T12:59:36;96614.44;;;21.09;60.69
44131;BME280;29792;48.726;9.248;2022-09-09T13:02:02;96617.44;;;21.00;61.72
44131;BME280;29792;48.726;9.248;2022-09-09T13:04:27;96623.63;;;20.92;59.74
44131;BME280;29792;48.726;9.248;2022-09-09T13:06:52;96607.78;;;20.80;60.27
44131;BME280;29792;48.726;9.248;2022-09-09T13:09:19;96609.34;;;20.68;61.24
44131;BME280;29792;48.726;9.248;2022-09-09T13:11:49;96611.13;;;20.61;60.90
44131;BME280;29792;48.726;9.248;2022-09-09T13:14:29;96614.06;;;20.51;61.59
44131;BME280;29792;48.726;9.248;2022-09-09T13:17:00;96610.66;;;20.44;61.79
44131;BME280;29792;48.726;9.248;2022-09-09T13:19:28;96601.47;;;20.42;62.53
44131;BME280;29792;48.726;9.248;2022-09-09T13:21:56;96612.44;;;20.44;63.06
44131;BME280;29792;48.726;9.248;2022-09-09T13:26:57;96598.63;;;20.43;61.76
44131;BME280;29792;48.726;9.248;2022-09-09T13:29:23;96599.50;;;20.50;61.58
44131;BME280;29792;48.726;9.248;2022-09-09T13:31:49;96604.13;;;20.62;60.71
44131;BME280;29792;48.726;9.248;2022-09-09T13:34:32;96606.78;;;20.75;61.31
44131;BME280;29792;48.726;9.248;2022-09-09T13:37:22;96592.97;;;20.94;60.11
44131;BME280;29792;48.726;9.248;2022-09-09T13:39:52;96591.41;;;21.06;59.31
44131;BME280;29792;48.726;9.248;2022-09-09T13:42:26;96589.03;;;21.18;59.51
44131;BME280;29792;48.726;9.248;2022-09-09T13:44:53;96585.66;;;21.30;60.37
44131;BME280;29792;48.726;9.248;2022-09-09T13:47:22;96598.06;;;21.42;58.71
44131;BME280;29792;48.726;9.248;2022-09-09T13:49:52;96602.88;;;21.51;58.00
44131;BME280;29792;48.726;9.248;2022-09-09T13:52:18;96595.66;;;21.53;57.10
44131;BME280;29792;48.726;9.248;2022-09-09T13:54:50;96594.25;;;21.51;58.27
44131;BME280;29792;48.726;9.248;2022-09-09T13:57:24;96596.03;;;21.57;57.52
44131;BME280;29792;48.726;9.248;2022-09-09T13:59:50;96593.66;;;21.62;57.14
44131;BME280;29792;48.726;9.248;2022-09-09T14:02:16;96592.81;;;21.68;57.98
44131;BME280;29792;48.726;9.248;2022-09-09T14:04:42;96599.44;;;21.77;59.12
44131;BME280;29792;48.726;9.248;2022-09-09T14:07:15;96595.63;;;21.80;57.29
44131;BME280;29792;48.726;9.248;2022-09-09T14:09:42;96589.22;;;21.76;56.00
44131;BME280;29792;48.726;9.248;2022-09-09T14:12:11;96584.41;;;21.73;56.43
44131;BME280;29792;48.726;9.248;2022-09-09T14:14:37;96584.41;;;21.79;57.77
44131;BME280;29792;48.726;9.248;2022-09-09T14:17:02;96588.78;;;21.92;56.70
44131;BME280;29792;48.726;9.248;2022-09-09T14:19:28;96584.97;;;22.01;57.28
44131;BME280;29792;48.726;9.248;2022-09-09T14:21:54;96591.16;;;22.06;56.28
44131;BME280;29792;48.726;9.248;2022-09-09T14:24:19;96600.22;;;22.11;55.40
44131;BME280;29792;48.726;9.248;2022-09-09T14:26:44;96585.56;;;22.10;56.12
44131;BME280;29792;48.726;9.248;2022-09-09T14:29:10;96588.78;;;22.12;55.79
44131;BME280;29792;48.726;9.248;2022-09-09T14:31:35;96584.13;;;22.14;57.02
44131;BME280;29792;48.726;9.248;2022-09-09T14:34:00;96580.31;;;22.16;56.42
44131;BME280;29792;48.726;9.248;2022-09-09T14:36:25;96583.91;;;22.15;55.60
44131;BME280;29792;48.726;9.248;2022-09-09T14:38:51;96579.94;;;22.13;53.91
44131;BME280;29792;48.726;9.248;2022-09-09T14:41:18;96575.53;;;22.13;54.05
44131;BME280;29792;48.726;9.248;2022-09-09T14:43:44;96578.13;;;22.13;52.23